Time;durP1;ratioP1;P1;durP2;ratioP2;P2;SDS_P1;SDS_P2;PMS_P1;PMS_P2;Temp;Humidity;BMP_temperature;BMP_pressure;BME280_temperature;BME280_humidity;BME280_pressure;Samples;Min_cycle;Max_cycle;Signal;HPM_P1;HPM_P2
2023/10/28 00:00:04;;;;;;;0.40;0.20;;;9.90;99.90;;;;;;4972512;28;20265;-57
2023/10/28 00:02:31;;;;;;;0.43;0.43;;;9.90;99.90;;;;;;4972902;28;20317;-57
2023/10/28 00:04:58;;;;;;;0.40;0.30;;;9.80;99.90;;;;;;4972357;28;20245;-57
2023/10/28 00:07:25;;;;;;;0.40;0.23;;;9.80;99.90;;;;;;4970776;28;20211;-57
2023/10/28 00:09:53;;;;;;;0.40;0.40;;;9.80;99.90;;;;;;4972397;28;20251;-57
2023/10/28 00:12:22;;;;;;;1.07;0.60;;;9.80;99.90;;;;;;4972633;28;20219;-57
2023/10/28 00:14:49;;;;;;;0.30;0.30;;;9.80;99.90;;;;;;4972451;28;20228;-57
2023/10/28 00:17:17;;;;;;;0.33;0.20;;;9.80;99.90;;;;;;4972748;28;20301;-57
2023/10/28 00:19:46;;;;;;;0.20;0.20;;;9.90;99.90;;;;;;4973054;28;20227;-57
2023/10/28 00:22:13;;;;;;;0.40;0.30;;;9.90;99.90;;;;;;4969979;28;20674;-57
2023/10/28 00:24:41;;;;;;;0.20;0.13;;;10.00;99.90;;;;;;4972369;28;20251;-57
2023/10/28 00:27:09;;;;;;;0.20;0.20;;;10.00;99.90;;;;;;4971876;28;20291;-57
2023/10/28 00:29:36;;;;;;;0.10;0.10;;;9.90;99.90;;;;;;4972650;28;20210;-57
2023/10/28 00:32:04;;;;;;;0.20;0.20;;;9.80;99.90;;;;;;4972720;28;20226;-56
2023/10/28 00:34:32;;;;;;;1.30;0.50;;;9.80;99.90;;;;;;4969615;28;20238;-57
2023/10/28 00:36:59;;;;;;;0.70;0.30;;;9.70;99.90;;;;;;4972033;28;20689;-57
2023/10/28 00:39:26;;;;;;;1.27;0.30;;;9.60;99.90;;;;;;4973058;28;20203;-57
2023/10/28 00:41:53;;;;;;;0.20;0.20;;;9.60;99.90;;;;;;4972740;28;20197;-57
2023/10/28 00:44:20;;;;;;;1.30;0.20;;;9.50;99.90;;;;;;4972155;28;20617;-57
2023/10/28 00:46:47;;;;;;;0.20;0.20;;;9.60;99.90;;;;;;4971223;28;20204;-57
2023/10/28 00:49:15;;;;;;;0.40;0.10;;;9.50;99.90;;;;;;4972148;28;20206;-57
2023/10/28 00:51:45;;;;;;;0.23;0.23;;;9.50;99.90;;;;;;4970833;28;20215;-57
2023/10/28 00:54:12;;;;;;;1.60;0.20;;;9.40;99.90;;;;;;4971446;28;20227;-57
2023/10/28 00:56:39;;;;;;;1.37;0.73;;;9.30;99.90;;;;;;4972070;28;20205;-57
2023/10/28 00:59:06;;;;;;;1.20;0.10;;;9.20;99.90;;;;;;4970304;28;20265;-57
2023/10/28 01:01:33;;;;;;;1.03;0.10;;;9.20;99.90;;;;;;4971906;28;20203;-57
2023/10/28 01:04:00;;;;;;;0.20;0.20;;;9.10;99.90;;;;;;4971664;28;20278;-57
2023/10/28 01:06:27;;;;;;;0.30;0.30;;;9.10;99.90;;;;;;4972058;28;20683;-57
2023/10/28 01:08:56;;;;;;;0.50;0.27;;;9.00;99.90;;;;;;4969594;28;20208;-57
2023/10/28 01:11:23;;;;;;;0.30;0.30;;;8.90;99.90;;;;;;4971679;28;20241;-57
2023/10/28 01:13:49;;;;;;;0.20;0.20;;;8.90;99.90;;;;;;4969453;28;20293;-57
2023/10/28 01:16:16;;;;;;;1.03;0.20;;;9.00;99.90;;;;;;4971758;28;20207;-57
2023/10/28 01:18:43;;;;;;;0.53;0.20;;;8.90;99.90;;;;;;4971904;28;20210;-57
2023/10/28 01:21:12;;;;;;;0.30;0.30;;;8.80;99.90;;;;;;4971834;28;20261;-57
2023/10/28 01:23:40;;;;;;;0.20;0.20;;;8.80;99.90;;;;;;4970593;28;20223;-57
2023/10/28 01:26:09;;;;;;;0.30;0.30;;;8.80;99.90;;;;;;4970890;28;20206;-57
2023/10/28 01:28:36;;;;;;;0.20;0.20;;;8.70;99.90;;;;;;4971761;28;20703;-57
2023/10/28 01:31:03;;;;;;;2.30;0.30;;;8.70;99.90;;;;;;4971755;28;20647;-57
2023/10/28 01:33:30;;;;;;;0.40;0.20;;;8.70;99.90;;;;;;4965460;28;20287;-59
2023/10/28 01:35:57;;;;;;;0.20;0.20;;;8.70;99.90;;;;;;4967851;28;20253;-57
2023/10/28 01:38:26;;;;;;;0.20;0.20;;;8.60;99.90;;;;;;4970524;28;20202;-57
2023/10/28 01:40:54;;;;;;;0.20;0.20;;;8.60;99.90;;;;;;4971626;28;20214;-57
2023/10/28 01:43:21;;;;;;;0.40;0.30;;;8.80;99.90;;;;;;4971178;28;20225;-57
2023/10/28 01:45:48;;;;;;;0.30;0.30;;;8.80;99.90;;;;;;4971390;28;20289;-57
2023/10/28 01:48:15;;;;;;;0.77;0.30;;;8.70;99.90;;;;;;4969020;28;20733;-57
2023/10/28 01:50:42;;;;;;;0.20;0.20;;;8.80;99.90;;;;;;4969453;28;20202;-57
2023/10/28 01:53:09;;;;;;;0.80;0.80;;;8.80;99.90;;;;;;4971090;28;20284;-56
2023/10/28 01:55:38;;;;;;;0.97;0.40;;;8.90;99.90;;;;;;4971563;28;20643;-57
2023/10/28 01:58:05;;;;;;;0.67;0.57;;;8.80;99.90;;;;;;4971595;28;20207;-56
2023/10/28 02:00:33;;;;;;;0.33;0.33;;;8.80;99.90;;;;;;4971313;28;20207;-57
2023/10/28 02:03:02;;;;;;;0.30;0.30;;;8.80;99.90;;;;;;4972312;28;20202;-57
2023/10/28 02:05:29;;;;;;;0.20;0.20;;;8.80;99.90;;;;;;4974543;28;20714;-57
2023/10/28 02:07:56;;;;;;;1.27;0.27;;;8.70;99.90;;;;;;4975160;28;20617;-57
2023/10/28 02:10:23;;;;;;;0.83;0.53;;;8.70;99.90;;;;;;4975230;28;20269;-57
2023/10/28 02:12:52;;;;;;;0.20;0.20;;;8.70;99.90;;;;;;4975224;28;20222;-57
2023/10/28 02:15:19;;;;;;;0.33;0.33;;;8.70;99.90;;;;;;4973754;28;20233;-57
2023/10/28 02:17:46;;;;;;;0.57;0.37;;;8.70;99.90;;;;;;4974920;28;20349;-57
2023/10/28 02:20:13;;;;;;;1.67;0.43;;;8.80;99.90;;;;;;4965380;28;20288;-56
2023/10/28 02:22:41;;;;;;;0.20;0.20;;;8.80;99.90;;;;;;4974790;28;20198;-57
2023/10/28 02:25:09;;;;;;;0.43;0.30;;;8.90;99.90;;;;;;4974565;28;20227;-57
2023/10/28 02:27:37;;;;;;;0.87;0.50;;;8.90;99.90;;;;;;4972422;28;20203;-57
2023/10/28 02:30:06;;;;;;;0.27;0.27;;;8.90;99.90;;;;;;4974569;28;20200;-57
2023/10/28 02:32:33;;;;;;;0.30;0.20;;;8.90;99.90;;;;;;4973697;28;20255;-57
2023/10/28 02:35:00;;;;;;;1.60;0.40;;;8.90;99.90;;;;;;4973681;28;20660;-57
2023/10/28 02:37:27;;;;;;;0.30;0.30;;;8.40;99.90;;;;;;4966446;28;20576;-57
2023/10/28 02:39:54;;;;;;;1.40;0.30;;;8.90;99.90;;;;;;4972842;28;20208;-57
2023/10/28 02:42:22;;;;;;;0.80;0.33;;;8.90;99.90;;;;;;4974329;28;20251;-57
2023/10/28 02:44:49;;;;;;;0.83;0.83;;;8.90;99.90;;;;;;4973808;28;20339;-57
2023/10/28 02:47:17;;;;;;;0.60;0.60;;;8.90;99.90;;;;;;4972668;28;20403;-57
2023/10/28 02:49:44;;;;;;;0.20;0.20;;;9.00;99.90;;;;;;4974216;28;20199;-57
2023/10/28 02:52:12;;;;;;;0.27;0.20;;;9.00;99.90;;;;;;4971348;28;20285;-57
2023/10/28 02:54:39;;;;;;;0.47;0.33;;;9.00;99.90;;;;;;4973895;28;20257;-57
2023/10/28 02:57:06;;;;;;;0.70;0.40;;;9.00;99.90;;;;;;4974409;28;20203;-57
2023/10/28 02:59:34;;;;;;;2.00;0.23;;;9.00;99.90;;;;;;4974312;28;20210;-57
2023/10/28 03:02:00;;;;;;;1.03;0.20;;;9.20;99.90;;;;;;4974231;28;20674;-57
2023/10/28 03:04:29;;;;;;;0.67;0.33;;;8.90;99.90;;;;;;4971068;28;20282;-57
2023/10/28 03:06:56;;;;;;;0.30;0.30;;;8.90;99.90;;;;;;4969770;28;20258;-57
2023/10/28 03:09:23;;;;;;;2.60;0.40;;;8.90;99.90;;;;;;4974138;28;20203;-57
2023/10/28 03:11:49;;;;;;;0.70;0.20;;;8.90;99.90;;;;;;4974006;28;20285;-57
2023/10/28 03:14:16;;;;;;;0.20;0.20;;;8.80;99.90;;;;;;4972751;28;20238;-57
2023/10/28 03:16:45;;;;;;;0.47;0.20;;;8.80;99.90;;;;;;4973157;28;20257;-57
2023/10/28 03:19:12;;;;;;;0.63;0.27;;;8.70;99.90;;;;;;4972809;28;20294;-57
2023/10/28 03:21:41;;;;;;;2.00;0.20;;;8.70;99.90;;;;;;4973877;28;20203;-57
2023/10/28 03:24:08;;;;;;;0.80;0.70;;;8.60;99.90;;;;;;4973457;28;20277;-56
2023/10/28 03:26:35;;;;;;;1.77;0.50;;;8.60;99.90;;;;;;4972116;28;20210;-57
2023/10/28 03:29:02;;;;;;;0.70;0.40;;;8.60;99.90;;;;;;4972581;28;20690;-57
2023/10/28 03:31:29;;;;;;;0.40;0.40;;;8.60;99.90;;;;;;4972820;28;20251;-57
2023/10/28 03:33:56;;;;;;;2.53;0.40;;;8.20;99.90;;;;;;4967324;28;20299;-57
2023/10/28 03:36:23;;;;;;;0.50;0.40;;;8.60;99.90;;;;;;4964711;28;20204;-57
2023/10/28 03:38:51;;;;;;;1.33;0.50;;;8.60;99.90;;;;;;4969678;28;20222;-57
2023/10/28 03:41:18;;;;;;;0.30;0.30;;;8.60;99.90;;;;;;4969524;28;20202;-57
2023/10/28 03:43:45;;;;;;;1.27;0.30;;;8.60;99.90;;;;;;4955124;28;20258;-57
2023/10/28 03:46:18;;;;;;;0.50;0.50;;;8.50;99.90;;;;;;4957829;28;20213;-57
2023/10/28 03:48:45;;;;;;;0.30;0.30;;;8.50;99.90;;;;;;4960118;28;20201;-57
2023/10/28 03:51:12;;;;;;;0.40;0.40;;;8.60;99.90;;;;;;4959441;28;20203;-57
2023/10/28 03:53:39;;;;;;;0.20;0.20;;;8.60;99.90;;;;;;4966387;28;20220;-59
2023/10/28 03:56:09;;;;;;;0.23;0.20;;;8.60;99.90;;;;;;4964138;28;20301;-57
2023/10/28 03:58:36;;;;;;;0.70;0.40;;;8.60;99.90;;;;;;4954489;28;20210;-57
2023/10/28 04:01:07;;;;;;;0.77;0.37;;;8.70;99.90;;;;;;4968463;28;20512;-57
2023/10/28 04:03:34;;;;;;;0.70;0.70;;;8.70;99.90;;;;;;4966214;28;20207;-57
2023/10/28 04:06:01;;;;;;;0.47;0.43;;;8.80;99.90;;;;;;4961067;28;20284;-57
2023/10/28 04:08:28;;;;;;;0.30;0.30;;;8.80;99.90;;;;;;4967463;28;20254;-57
2023/10/28 04:10:55;;;;;;;0.73;0.50;;;8.80;99.90;;;;;;4966354;28;20215;-57
2023/10/28 04:13:23;;;;;;;0.60;0.60;;;8.80;99.90;;;;;;4961575;28;20652;-57
2023/10/28 04:15:50;;;;;;;1.70;0.70;;;8.80;99.90;;;;;;4967318;28;20222;-57
2023/10/28 04:18:17;;;;;;;1.27;1.17;;;8.90;99.90;;;;;;4963184;28;20259;-57
2023/10/28 04:20:44;;;;;;;0.60;0.60;;;8.90;99.90;;;;;;4960371;28;20355;-57
2023/10/28 04:23:11;;;;;;;2.63;0.60;;;8.90;99.90;;;;;;4961610;28;20504;-57
2023/10/28 04:25:38;;;;;;;0.40;0.40;;;8.80;99.90;;;;;;4954692;28;20230;-57
2023/10/28 04:28:05;;;;;;;1.80;0.60;;;8.80;99.90;;;;;;4958206;28;20204;-57
2023/10/28 04:30:33;;;;;;;0.50;0.50;;;8.80;99.90;;;;;;4970136;28;20206;-57
2023/10/28 04:33:00;;;;;;;0.50;0.43;;;8.80;99.90;;;;;;4962601;28;20703;-57
2023/10/28 04:35:27;;;;;;;0.43;0.43;;;8.80;99.90;;;;;;4966582;28;20218;-57
2023/10/28 04:37:54;;;;;;;0.60;0.60;;;8.80;99.90;;;;;;4958269;28;20702;-57
2023/10/28 04:40:21;;;;;;;1.00;0.90;;;8.80;99.90;;;;;;4954465;28;20211;-57
2023/10/28 04:42:48;;;;;;;0.60;0.60;;;8.80;99.90;;;;;;4962458;28;20202;-57
2023/10/28 04:45:15;;;;;;;0.50;0.50;;;8.80;99.90;;;;;;4960965;28;20231;-57
2023/10/28 04:47:44;;;;;;;0.83;0.57;;;8.80;99.90;;;;;;4965650;28;20207;-57
2023/10/28 04:50:12;;;;;;;0.50;0.50;;;8.80;99.90;;;;;;4965390;28;20204;-57
2023/10/28 04:52:40;;;;;;;2.20;0.70;;;8.80;99.90;;;;;;4967013;28;20199;-57
2023/10/28 04:55:07;;;;;;;0.77;0.77;;;8.80;99.90;;;;;;4953506;28;20219;-57
2023/10/28 04:57:34;;;;;;;0.60;0.60;;;8.70;99.90;;;;;;4957899;28;20275;-57
2023/10/28 05:00:01;;;;;;;0.73;0.73;;;8.70;99.90;;;;;;4955894;28;20208;-57
2023/10/28 05:02:28;;;;;;;0.87;0.87;;;8.70;99.90;;;;;;4964733;28;20214;-57
2023/10/28 05:04:58;;;;;;;0.77;0.77;;;8.60;99.90;;;;;;4962045;28;20269;-56
2023/10/28 05:07:25;;;;;;;0.80;0.80;;;8.60;99.90;;;;;;4965508;28;20246;-57
2023/10/28 05:09:52;;;;;;;0.77;0.77;;;8.60;99.90;;;;;;4964877;28;20232;-57
2023/10/28 05:12:19;;;;;;;2.40;2.30;;;8.50;99.90;;;;;;4968835;28;20297;-57
2023/10/28 05:14:46;;;;;;;2.27;2.17;;;8.40;99.90;;;;;;4963573;28;20266;-57
2023/10/28 05:17:13;;;;;;;2.77;0.97;;;8.40;99.90;;;;;;4964967;28;20588;-57
2023/10/28 05:19:41;;;;;;;0.70;0.70;;;8.30;99.90;;;;;;4960427;28;20593;-57
2023/10/28 05:22:09;;;;;;;0.70;0.70;;;8.30;99.90;;;;;;4968910;28;20214;-57
2023/10/28 05:24:37;;;;;;;2.87;1.57;;;8.30;99.90;;;;;;4962218;28;20223;-57
2023/10/28 05:27:23;;;;;;;1.60;1.23;;;8.30;99.90;;;;;;4953209;28;20207;-56
2023/10/28 05:29:50;;;;;;;2.63;2.47;;;8.20;99.90;;;;;;4967603;28;20302;-57
2023/10/28 05:32:17;;;;;;;2.60;2.50;;;8.20;99.90;;;;;;4962826;28;20205;-57
2023/10/28 05:34:44;;;;;;;2.07;1.97;;;8.10;99.90;;;;;;4968539;28;20605;-56
2023/10/28 05:37:12;;;;;;;0.90;0.90;;;8.10;99.90;;;;;;4970477;28;20627;-57
2023/10/28 05:39:40;;;;;;;0.73;0.73;;;8.00;99.90;;;;;;4969374;28;20203;-57
2023/10/28 05:42:07;;;;;;;1.00;1.00;;;8.00;99.90;;;;;;4969302;28;20246;-57
2023/10/28 05:44:35;;;;;;;0.70;0.70;;;8.00;99.90;;;;;;4970570;28;20711;-56
2023/10/28 05:47:02;;;;;;;1.00;0.93;;;8.00;99.90;;;;;;4971305;28;20257;-58
2023/10/28 05:49:29;;;;;;;1.10;1.10;;;7.90;99.90;;;;;;4970804;28;20245;-57
2023/10/28 05:51:56;;;;;;;1.03;0.97;;;7.90;99.90;;;;;;4971214;28;20265;-57
2023/10/28 05:54:24;;;;;;;0.80;0.80;;;7.90;99.90;;;;;;4970108;28;20698;-57
2023/10/28 05:56:51;;;;;;;1.77;1.67;;;7.80;99.90;;;;;;4970343;28;20273;-56
2023/10/28 05:59:18;;;;;;;1.67;1.17;;;7.80;99.90;;;;;;4971177;28;20585;-57
2023/10/28 06:01:45;;;;;;;1.47;1.37;;;7.80;99.90;;;;;;4971008;28;20207;-57
2023/10/28 06:04:12;;;;;;;1.47;1.10;;;7.80;99.90;;;;;;4970423;28;20219;-56
2023/10/28 06:06:39;;;;;;;1.00;1.00;;;7.80;99.90;;;;;;4971236;28;20249;-56
2023/10/28 06:09:09;;;;;;;1.40;1.30;;;7.80;99.90;;;;;;4969714;28;20621;-57
2023/10/28 06:11:38;;;;;;;1.27;1.27;;;7.80;99.90;;;;;;4971145;28;20667;-57
2023/10/28 06:14:05;;;;;;;1.83;1.73;;;7.80;99.90;;;;;;4967202;28;20231;-58
2023/10/28 06:16:32;;;;;;;1.63;1.40;;;7.80;99.90;;;;;;4968189;28;20671;-59
2023/10/28 06:19:00;;;;;;;2.23;1.80;;;7.80;99.90;;;;;;4970947;28;20196;-58
2023/10/28 06:21:27;;;;;;;2.17;1.97;;;7.90;99.90;;;;;;4970040;28;20667;-58
2023/10/28 06:23:54;;;;;;;3.60;3.10;;;7.90;99.90;;;;;;4970698;28;20230;-59
2023/10/28 06:26:21;;;;;;;4.23;2.90;;;7.90;99.90;;;;;;4970836;28;20210;-58
2023/10/28 06:28:49;;;;;;;1.53;1.47;;;8.00;99.90;;;;;;4970823;28;20268;-58
2023/10/28 06:31:16;;;;;;;2.93;2.67;;;8.00;99.90;;;;;;4970768;28;20699;-58
2023/10/28 06:33:43;;;;;;;2.23;2.13;;;8.00;99.90;;;;;;4970385;28;20222;-58
2023/10/28 06:36:10;;;;;;;1.77;1.67;;;8.10;99.90;;;;;;4969894;28;20202;-58
2023/10/28 06:38:37;;;;;;;2.77;1.60;;;8.20;99.90;;;;;;4967935;28;20204;-59
2023/10/28 06:41:05;;;;;;;2.70;1.50;;;8.20;99.90;;;;;;4971055;28;20202;-58
2023/10/28 06:43:33;;;;;;;1.20;1.10;;;8.20;99.90;;;;;;4969576;28;20633;-58
2023/10/28 06:46:01;;;;;;;1.30;1.30;;;8.20;99.90;;;;;;4970745;28;20230;-59
2023/10/28 06:48:28;;;;;;;3.43;1.60;;;8.20;99.90;;;;;;4970961;28;20270;-59
2023/10/28 06:50:55;;;;;;;2.20;2.10;;;8.20;99.90;;;;;;4973774;28;20266;-59
2023/10/28 06:53:23;;;;;;;2.67;2.07;;;8.30;99.90;;;;;;4970005;28;20642;-59
2023/10/28 06:55:50;;;;;;;2.17;2.07;;;8.40;99.90;;;;;;4967281;28;20219;-59
2023/10/28 06:58:17;;;;;;;2.23;2.13;;;8.50;99.90;;;;;;4961025;28;20219;-59
2023/10/28 07:00:44;;;;;;;1.47;1.37;;;8.50;99.90;;;;;;4961868;28;20211;-59
2023/10/28 07:03:14;;;;;;;2.03;1.93;;;8.70;99.90;;;;;;4964787;28;20259;-59
2023/10/28 07:05:41;;;;;;;2.03;1.77;;;8.80;99.90;;;;;;4961409;28;20225;-58
2023/10/28 07:08:08;;;;;;;0.97;0.97;;;8.90;99.90;;;;;;4961772;28;20286;-59
2023/10/28 07:10:35;;;;;;;1.30;1.30;;;9.00;99.90;;;;;;4964538;28;20289;-59
2023/10/28 07:13:04;;;;;;;1.40;1.33;;;8.90;99.90;;;;;;4966196;28;20215;-59
2023/10/28 07:15:31;;;;;;;2.40;1.87;;;8.90;99.90;;;;;;4959107;28;20312;-59
2023/10/28 07:17:58;;;;;;;1.70;1.00;;;9.00;99.90;;;;;;4958289;28;20207;-59
2023/10/28 07:20:28;;;;;;;1.63;1.53;;;9.00;99.90;;;;;;4961771;28;20500;-59
2023/10/28 07:22:55;;;;;;;1.80;1.70;;;9.00;99.90;;;;;;4961521;28;20204;-59
2023/10/28 07:25:22;;;;;;;1.53;1.43;;;9.00;99.90;;;;;;4961316;28;20742;-59
2023/10/28 07:27:48;;;;;;;1.50;1.30;;;9.10;99.90;;;;;;4966958;28;20212;-59
2023/10/28 07:30:16;;;;;;;2.60;1.53;;;9.30;99.90;;;;;;4960492;28;20303;-59
2023/10/28 07:32:42;;;;;;;1.80;1.70;;;9.50;99.90;;;;;;4962557;28;20261;-59
2023/10/28 07:35:10;;;;;;;1.13;1.13;;;9.70;99.90;;;;;;4962412;28;20271;-59
2023/10/28 07:37:39;;;;;;;1.83;1.73;;;9.80;99.90;;;;;;4956242;28;20201;-59
2023/10/28 07:40:07;;;;;;;3.70;1.60;;;9.90;99.90;;;;;;4955080;28;20281;-59
2023/10/28 07:42:35;;;;;;;0.87;0.87;;;10.20;99.90;;;;;;4971094;28;20258;-59
2023/10/28 07:45:02;;;;;;;2.97;1.00;;;10.40;99.90;;;;;;4971494;28;20234;-59
2023/10/28 07:47:30;;;;;;;5.73;1.60;;;10.60;99.90;;;;;;4961540;28;20204;-59
2023/10/28 07:49:58;;;;;;;1.03;1.03;;;10.50;99.90;;;;;;4954699;28;20239;-59
2023/10/28 07:52:26;;;;;;;1.43;1.33;;;10.70;99.90;;;;;;4963865;28;20204;-59
2023/10/28 07:54:54;;;;;;;1.80;1.70;;;10.80;99.90;;;;;;4965133;28;20255;-59
2023/10/28 07:57:22;;;;;;;1.07;0.77;;;10.80;99.90;;;;;;4966852;28;20239;-59
2023/10/28 07:59:49;;;;;;;1.97;1.27;;;10.80;99.90;;;;;;4970450;28;20587;-59
2023/10/28 08:02:17;;;;;;;1.03;1.00;;;10.80;99.90;;;;;;4970244;28;20214;-59
2023/10/28 08:04:44;;;;;;;0.80;0.80;;;10.90;99.90;;;;;;4959541;28;20282;-59
2023/10/28 08:07:11;;;;;;;0.93;0.80;;;11.00;99.90;;;;;;4962093;28;20289;-59
2023/10/28 08:09:38;;;;;;;2.27;0.73;;;11.20;99.90;;;;;;4962906;28;20269;-59
2023/10/28 08:12:07;;;;;;;1.07;0.97;;;11.20;99.90;;;;;;4957012;28;20204;-59
2023/10/28 08:14:34;;;;;;;1.13;0.80;;;11.30;99.90;;;;;;4963636;28;20227;-58
2023/10/28 08:17:01;;;;;;;2.03;0.40;;;11.40;99.90;;;;;;4970598;28;20338;-59
2023/10/28 08:19:29;;;;;;;0.77;0.77;;;11.50;99.90;;;;;;4966422;28;20197;-59
2023/10/28 08:21:56;;;;;;;0.97;0.93;;;11.50;99.90;;;;;;4966956;28;20877;-59
2023/10/28 08:24:23;;;;;;;0.93;0.60;;;11.40;99.90;;;;;;4970894;28;20227;-59
2023/10/28 08:26:50;;;;;;;1.30;0.70;;;11.30;99.90;;;;;;4971031;28;20286;-59
2023/10/28 08:29:19;;;;;;;0.77;0.77;;;11.20;99.90;;;;;;4970431;28;20269;-59
2023/10/28 08:31:46;;;;;;;0.70;0.70;;;11.30;99.90;;;;;;4965505;28;20310;-59
2023/10/28 08:34:13;;;;;;;0.70;0.60;;;11.60;99.90;;;;;;4968739;28;20235;-59
2023/10/28 08:36:41;;;;;;;0.67;0.57;;;11.90;99.90;;;;;;4954910;28;20229;-59
2023/10/28 08:39:08;;;;;;;0.70;0.67;;;12.10;99.90;;;;;;4955723;28;20208;-58
2023/10/28 08:41:36;;;;;;;1.20;0.70;;;12.20;99.90;;;;;;4960832;28;20277;-59
2023/10/28 08:44:05;;;;;;;1.90;1.10;;;12.00;99.90;;;;;;4968543;28;20244;-59
2023/10/28 08:46:35;;;;;;;1.43;1.07;;;12.40;99.90;;;;;;4963725;28;20263;-59
2023/10/28 08:49:04;;;;;;;1.53;0.60;;;13.10;99.90;;;;;;4967339;28;20209;-59
2023/10/28 08:51:31;;;;;;;0.57;0.57;;;14.00;99.90;;;;;;4970790;28;20203;-59
2023/10/28 08:54:01;;;;;;;0.53;0.50;;;14.90;99.90;;;;;;4971553;28;20220;-59
2023/10/28 08:56:29;;;;;;;0.40;0.40;;;15.50;99.90;;;;;;4972403;28;20211;-59
2023/10/28 08:58:56;;;;;;;2.40;0.87;;;15.90;99.90;;;;;;4971017;28;20660;-59
2023/10/28 09:01:24;;;;;;;0.50;0.50;;;16.20;99.90;;;;;;4971913;28;20295;-59
2023/10/28 09:04:01;;;;;;;1.50;0.63;;;16.50;99.90;;;;;;4969899;28;20223;-59
2023/10/28 09:06:30;;;;;;;0.60;0.43;;;16.80;99.90;;;;;;4971755;28;20227;-59
2023/10/28 09:08:57;;;;;;;0.73;0.70;;;16.90;99.90;;;;;;4970940;28;20731;-59
2023/10/28 09:11:25;;;;;;;1.60;0.53;;;17.30;99.90;;;;;;4971103;28;20230;-59
2023/10/28 09:13:53;;;;;;;0.40;0.40;;;17.60;99.90;;;;;;4971439;28;20220;-59
2023/10/28 09:16:20;;;;;;;0.30;0.30;;;17.50;99.90;;;;;;4971639;28;20231;-59
2023/10/28 09:18:49;;;;;;;0.80;0.40;;;17.50;99.90;;;;;;4969880;28;20201;-59
2023/10/28 09:21:17;;;;;;;1.60;0.30;;;17.50;99.90;;;;;;4970049;28;20287;-59
2023/10/28 09:23:44;;;;;;;0.80;0.80;;;17.80;99.90;;;;;;4971236;28;20581;-59
2023/10/28 09:26:11;;;;;;;1.90;0.50;;;18.30;99.90;;;;;;4969661;28;20267;-59
2023/10/28 09:28:44;;;;;;;0.50;0.50;;;18.30;99.90;;;;;;4970554;28;20267;-59
2023/10/28 09:31:11;;;;;;;0.97;0.30;;;18.40;99.90;;;;;;4971168;28;20593;-59
2023/10/28 09:33:38;;;;;;;1.00;1.00;;;18.60;99.90;;;;;;4971303;28;20283;-59
2023/10/28 09:36:09;;;;;;;0.40;0.40;;;18.70;99.90;;;;;;4970529;28;20216;-59
2023/10/28 09:38:41;;;;;;;2.57;0.20;;;18.60;99.90;;;;;;4966134;28;20716;-59
2023/10/28 09:41:10;;;;;;;1.13;0.20;;;18.60;99.90;;;;;;4969605;28;20300;-58
2023/10/28 09:43:38;;;;;;;1.77;0.40;;;18.30;99.90;;;;;;4967040;28;20212;-59
2023/10/28 09:46:06;;;;;;;0.70;0.53;;;18.10;99.90;;;;;;4969454;28;20201;-59
2023/10/28 09:48:34;;;;;;;0.73;0.50;;;18.10;99.90;;;;;;4970847;28;20283;-59
2023/10/28 09:51:05;;;;;;;1.80;0.47;;;17.90;99.90;;;;;;4970757;28;20287;-59
2023/10/28 09:53:36;;;;;;;0.30;0.30;;;18.10;99.90;;;;;;4970112;28;20201;-59
2023/10/28 09:56:09;;;;;;;0.20;0.20;;;18.30;99.90;;;;;;4969981;28;20263;-59
2023/10/28 09:58:42;;;;;;;0.20;0.20;;;18.10;99.90;;;;;;4963460;28;20663;-59
2023/10/28 10:01:17;;;;;;;0.30;0.30;;;18.20;99.90;;;;;;4971140;28;20232;-59
2023/10/28 10:03:58;;;;;;;1.70;0.20;;;17.70;99.90;;;;;;4972252;28;20262;-59
2023/10/28 10:06:25;;;;;;;0.30;0.30;;;17.90;99.90;;;;;;4970822;28;20681;-58
2023/10/28 10:08:55;;;;;;;0.67;0.30;;;17.50;99.90;;;;;;4969908;28;20259;-59
2023/10/28 10:11:24;;;;;;;0.30;0.30;;;17.70;99.90;;;;;;4972053;28;20208;-59
2023/10/28 10:13:51;;;;;;;0.40;0.40;;;17.80;99.90;;;;;;4968543;28;20220;-59
2023/10/28 10:16:28;;;;;;;1.20;0.30;;;17.90;99.90;;;;;;4964415;28;20225;-59
2023/10/28 10:18:58;;;;;;;0.40;0.40;;;17.70;99.90;;;;;;4964018;28;20201;-59
2023/10/28 10:21:32;;;;;;;0.40;0.37;;;17.60;99.90;;;;;;4961063;28;21046;-59
2023/10/28 10:24:04;;;;;;;0.70;0.60;;;17.50;99.90;;;;;;4969887;28;20224;-59
2023/10/28 10:26:33;;;;;;;0.60;0.60;;;17.30;99.90;;;;;;4968964;28;20688;-59
2023/10/28 10:29:03;;;;;;;0.80;0.30;;;17.00;99.90;;;;;;4974246;28;20571;-58
2023/10/28 10:31:31;;;;;;;0.47;0.47;;;16.70;99.90;;;;;;4970694;28;20240;-59
2023/10/28 10:34:01;;;;;;;0.30;0.30;;;16.50;99.90;;;;;;4968022;28;20227;-59
2023/10/28 10:36:30;;;;;;;1.17;0.30;;;16.40;99.90;;;;;;4972875;28;20235;-59
2023/10/28 10:39:18;;;;;;;0.30;0.30;;;16.40;99.90;;;;;;4963858;28;20209;-58
2023/10/28 10:41:49;;;;;;;1.03;0.20;;;16.40;99.90;;;;;;4959964;28;20272;-59
2023/10/28 10:44:33;;;;;;;0.30;0.30;;;16.50;99.90;;;;;;4964978;28;20237;-58
2023/10/28 10:47:01;;;;;;;0.30;0.30;;;16.30;99.90;;;;;;4970794;28;20267;-59
2023/10/28 10:49:30;;;;;;;0.20;0.20;;;16.30;99.90;;;;;;4963469;28;20678;-59
2023/10/28 10:51:58;;;;;;;0.20;0.20;;;16.40;99.90;;;;;;4960126;28;20493;-59
2023/10/28 10:54:30;;;;;;;0.20;0.20;;;16.50;99.90;;;;;;4965801;28;20352;-59
2023/10/28 10:56:59;;;;;;;3.50;0.30;;;16.70;99.90;;;;;;4967953;28;20224;-58
2023/10/28 10:59:28;;;;;;;0.60;0.30;;;16.70;99.90;;;;;;4972436;28;20209;-64
2023/10/28 11:01:56;;;;;;;0.97;0.40;;;16.80;99.90;;;;;;4972625;28;20225;-65
2023/10/28 11:04:24;;;;;;;0.37;0.20;;;16.90;99.90;;;;;;4971796;28;20224;-64
2023/10/28 11:06:51;;;;;;;0.20;0.20;;;16.90;99.90;;;;;;4970524;28;20228;-63
2023/10/28 11:09:19;;;;;;;0.10;0.10;;;16.70;99.90;;;;;;4971344;28;20292;-65
2023/10/28 11:11:46;;;;;;;0.30;0.30;;;16.60;99.90;;;;;;4971798;28;20577;-61
2023/10/28 11:14:14;;;;;;;0.23;0.23;;;16.60;99.90;;;;;;4964332;28;20229;-64
2023/10/28 11:16:42;;;;;;;0.60;0.20;;;16.50;99.90;;;;;;4972086;28;20616;-63
2023/10/28 11:19:11;;;;;;;0.70;0.53;;;16.40;99.90;;;;;;4965960;28;20196;-62
2023/10/28 11:21:39;;;;;;;0.20;0.20;;;16.40;99.90;;;;;;4964104;28;20208;-62
2023/10/28 11:24:08;;;;;;;0.93;0.20;;;16.40;99.90;;;;;;4958178;28;20295;-59
2023/10/28 11:26:36;;;;;;;0.10;0.10;;;16.40;99.90;;;;;;4963942;28;20327;-59
2023/10/28 11:29:04;;;;;;;0.20;0.17;;;16.30;99.90;;;;;;4968916;28;20216;-60
2023/10/28 11:31:33;;;;;;;0.10;0.10;;;16.40;99.90;;;;;;4958948;28;20216;-61
2023/10/28 11:34:01;;;;;;;0.17;0.17;;;16.50;99.90;;;;;;4958164;28;20221;-61
2023/10/28 11:36:30;;;;;;;0.10;0.10;;;16.60;99.90;;;;;;4958444;28;20288;-61
2023/10/28 11:38:57;;;;;;;0.40;0.40;;;16.60;99.90;;;;;;4958469;28;20205;-61
2023/10/28 11:41:25;;;;;;;0.30;0.30;;;16.60;99.90;;;;;;4962386;28;20686;-61
2023/10/28 11:43:52;;;;;;;0.30;0.30;;;16.70;99.90;;;;;;4968401;28;20224;-64
2023/10/28 11:46:21;;;;;;;0.27;0.10;;;16.70;99.90;;;;;;4971419;28;20200;-63
2023/10/28 11:48:49;;;;;;;0.20;0.20;;;16.60;99.90;;;;;;4955086;28;20201;-63
2023/10/28 11:51:17;;;;;;;0.20;0.20;;;16.60;99.90;;;;;;4956640;28;20740;-62
2023/10/28 11:53:47;;;;;;;0.20;0.20;;;16.50;99.90;;;;;;4958084;28;20196;-62
2023/10/28 11:56:15;;;;;;;0.20;0.10;;;16.50;99.90;;;;;;4959133;28;20701;-63
2023/10/28 11:58:43;;;;;;;0.20;0.20;;;16.60;99.90;;;;;;4964084;28;20289;-62
2023/10/28 12:01:12;;;;;;;0.20;0.20;;;16.70;99.90;;;;;;4971808;28;20657;-63
2023/10/28 12:03:39;;;;;;;0.20;0.20;;;16.70;99.90;;;;;;4954284;28;20212;-65
2023/10/28 12:06:09;;;;;;;0.40;0.30;;;16.70;99.90;;;;;;4956045;28;20245;-64
2023/10/28 12:08:36;;;;;;;0.20;0.20;;;16.60;99.90;;;;;;4959850;28;20283;-66
2023/10/28 12:11:04;;;;;;;0.40;0.40;;;16.60;99.90;;;;;;4962535;28;20208;-65
2023/10/28 12:13:32;;;;;;;0.67;0.20;;;16.60;99.90;;;;;;4961159;28;20209;-66
2023/10/28 12:15:59;;;;;;;0.20;0.20;;;16.40;99.90;;;;;;4968820;28;20259;-64
2023/10/28 12:18:26;;;;;;;0.20;0.20;;;16.40;99.90;;;;;;4955650;28;20205;-66
2023/10/28 12:20:53;;;;;;;1.77;0.33;;;16.10;99.90;;;;;;4955450;28;20200;-67
2023/10/28 12:23:22;;;;;;;0.30;0.30;;;16.00;99.90;;;;;;4956948;28;20197;-66
2023/10/28 12:25:49;;;;;;;0.30;0.30;;;16.00;99.90;;;;;;4957852;28;20248;-65
2023/10/28 12:28:16;;;;;;;0.20;0.20;;;16.10;99.90;;;;;;4959348;28;20201;-64
2023/10/28 12:30:43;;;;;;;0.73;0.40;;;16.20;99.90;;;;;;4963191;28;20746;-66
2023/10/28 12:35:37;;;;;;;0.30;0.30;;;16.50;99.90;;;;;;5002475;23;20588;-67
2023/10/28 12:38:05;;;;;;;1.47;0.13;;;16.50;99.90;;;;;;4972300;28;20200;-68
2023/10/28 12:40:33;;;;;;;0.10;0.10;;;16.70;99.90;;;;;;4971176;28;20236;-69
2023/10/28 12:43:02;;;;;;;0.20;0.20;;;16.80;99.90;;;;;;4972077;28;20199;-69
2023/10/28 12:45:29;;;;;;;0.20;0.20;;;16.70;99.90;;;;;;4971036;28;20232;-69
2023/10/28 12:47:57;;;;;;;1.23;0.30;;;16.80;99.90;;;;;;4962210;28;20213;-70
2023/10/28 12:50:24;;;;;;;0.20;0.20;;;16.80;99.90;;;;;;4955591;28;20205;-69
2023/10/28 12:52:51;;;;;;;0.23;0.23;;;16.80;99.90;;;;;;4971484;28;20201;-70
2023/10/28 12:55:18;;;;;;;1.73;0.27;;;16.70;99.90;;;;;;4969701;28;20640;-71
2023/10/28 12:57:46;;;;;;;0.20;0.20;;;16.80;99.90;;;;;;4953451;28;20291;-68